Time,TemperatureF,DewpointF,PressureIn,WindDirection,WindDirectionDegrees,WindSpeedMPH,WindSpeedGustMPH,Humidity,HourlyPrecipIn,Conditions,Clouds,dailyrainin,SoftwareType,DateUTC
2014-03-14 00:02:00,55.3,51.5,30.00,West,277,0.0,2.0,87,0.00,,,0.00,Wunderground v.1.15,2014-03-14 07:02:00,
2014-03-14 00:12:00,55.1,51.3,30.00,West,277,0.0,2.0,87,0.00,,,0.00,Wunderground v.1.15,2014-03-14 07:12:00,
2014-03-14 00:22:00,54.7,50.9,30.00,West,277,0.0,0.0,87,0.00,,,0.00,Wunderground v.1.15,2014-03-14 07:22:00,
2014-03-14 00:32:00,54.6,51.1,30.00,West,277,0.0,0.0,88,0.00,,,0.00,Wunderground v.1.15,2014-03-14 07:32:00,
2014-03-14 00:37:00,54.5,51.0,30.00,West,277,0.0,0.0,88,0.00,,,0.00,Wunderground v.1.15,2014-03-14 07:37:00,
2014-03-14 00:47:00,54.2,51.0,30.00,West,277,0.0,0.0,89,0.00,,,0.00,Wunderground v.1.15,2014-03-14 07:47:00,
2014-03-14 00:52:00,54.1,50.9,30.00,West,277,0.0,0.0,89,0.00,,,0.00,Wunderground v.1.15,2014-03-14 07:52:00,
2014-03-14 01:02:00,53.8,50.9,30.00,West,277,0.0,1.0,90,0.00,,,0.00,Wunderground v.1.15,2014-03-14 08:02:00,
2014-03-14 01:07:00,53.8,50.9,30.00,West,277,0.0,1.0,90,0.00,,,0.00,Wunderground v.1.15,2014-03-14 08:07:00,
2014-03-14 01:17:00,53.8,50.9,30.00,West,277,0.0,1.0,90,0.00,,,0.00,Wunderground v.1.15,2014-03-14 08:17:00,
2014-03-14 01:22:00,53.7,50.8,30.00,West,277,0.0,0.0,90,0.00,,,0.00,Wunderground v.1.15,2014-03-14 08:22:00,
2014-03-14 01:32:00,53.4,50.5,30.00,West,277,0.0,0.0,90,0.00,,,0.00,Wunderground v.1.15,2014-03-14 08:32:00,
2014-03-14 01:42:00,53.1,50.2,30.01,West,277,0.0,0.0,90,0.00,,,0.00,Wunderground v.1.15,2014-03-14 08:42:00,
2014-03-14 01:52:00,52.9,50.3,30.00,West,277,0.0,1.0,91,0.00,,,0.00,Wunderground v.1.15,2014-03-14 08:52:00,
2014-03-14 02:02:00,52.8,50.2,30.01,West,277,0.0,1.0,91,0.00,,,0.00,Wunderground v.1.15,2014-03-14 09:02:00,
2014-03-14 02:12:00,52.6,50.0,30.01,West,277,0.0,1.0,91,0.00,,,0.00,Wunderground v.1.15,2014-03-14 09:12:00,
2014-03-14 02:17:00,52.6,50.0,30.01,West,277,0.0,1.0,91,0.00,,,0.00,Wunderground v.1.15,2014-03-14 09:17:00,
2014-03-14 02:22:00,52.6,50.3,30.01,West,277,0.0,0.0,92,0.00,,,0.00,Wunderground v.1.15,2014-03-14 09:22:00,
2014-03-14 02:32:00,52.3,50.0,30.01,West,277,0.0,0.0,92,0.00,,,0.00,Wunderground v.1.15,2014-03-14 09:32:00,
2014-03-14 02:42:00,52.2,50.2,30.01,West,277,0.0,1.0,93,0.00,,,0.00,Wunderground v.1.15,2014-03-14 09:42:00,
2014-03-14 02:52:00,52.1,49.8,30.01,West,277,0.0,0.0,92,0.00,,,0.00,Wunderground v.1.15,2014-03-14 09:52:00,
2014-03-14 03:02:00,51.8,49.5,30.01,West,277,0.0,1.0,92,0.00,,,0.00,Wunderground v.1.15,2014-03-14 10:02:00,
2014-03-14 03:07:00,51.6,49.4,30.00,West,277,0.0,1.0,92,0.00,,,0.00,Wunderground v.1.15,2014-03-14 10:07:00,
2014-03-14 03:17:00,51.3,49.1,30.00,West,277,0.0,1.0,92,0.00,,,0.00,Wunderground v.1.15,2014-03-14 10:17:00,
2014-03-14 03:22:00,51.2,49.2,30.00,West,277,0.0,0.0,93,0.00,,,0.00,Wunderground v.1.15,2014-03-14 10:22:00,
2014-03-14 03:32:00,51.0,49.0,30.00,West,277,0.0,0.0,93,0.00,,,0.00,Wunderground v.1.15,2014-03-14 10:32:00,
2014-03-14 03:42:00,50.8,48.8,30.00,West,277,0.0,0.0,93,0.00,,,0.00,Wunderground v.1.15,2014-03-14 10:42:00,
2014-03-14 03:52:00,50.8,48.8,30.00,West,277,0.0,0.0,93,0.00,,,0.00,Wunderground v.1.15,2014-03-14 10:52:00,
2014-03-14 03:57:00,50.9,48.9,30.00,West,277,0.0,0.0,93,0.00,,,0.00,Wunderground v.1.15,2014-03-14 10:57:00,
2014-03-14 04:07:00,50.9,49.2,30.00,West,277,0.0,1.0,94,0.00,,,0.00,Wunderground v.1.15,2014-03-14 11:07:00,
2014-03-14 04:12:00,50.9,49.2,30.00,West,277,0.0,1.0,94,0.00,,,0.00,Wunderground v.1.15,2014-03-14 11:12:00,
2014-03-14 04:22:00,50.9,48.9,30.00,West,277,0.0,0.0,93,0.00,,,0.00,Wunderground v.1.15,2014-03-14 11:22:00,
2014-03-14 04:32:00,50.8,48.8,30.00,West,277,0.0,0.0,93,0.00,,,0.00,Wunderground v.1.15,2014-03-14 11:32:00,
2014-03-14 04:42:00,50.6,48.7,30.00,West,277,0.0,0.0,93,0.00,,,0.00,Wunderground v.1.15,2014-03-14 11:42:00,
2014-03-14 04:52:00,50.4,48.5,30.00,West,277,0.0,0.0,93,0.00,,,0.00,Wunderground v.1.15,2014-03-14 11:52:00,
2014-03-14 05:02:00,50.2,48.3,30.00,West,277,0.0,0.0,93,0.00,,,0.00,Wunderground v.1.15,2014-03-14 12:02:00,
2014-03-14 05:12:00,49.9,48.0,30.01,West,277,0.0,0.0,93,0.00,,,0.00,Wunderground v.1.15,2014-03-14 12:12:00,
2014-03-14 05:22:00,49.8,48.1,30.01,West,277,0.0,0.0,94,0.00,,,0.00,Wunderground v.1.15,2014-03-14 12:22:00,
2014-03-14 05:27:00,49.8,48.1,30.01,West,277,0.0,0.0,94,0.00,,,0.00,Wunderground v.1.15,2014-03-14 12:27:00,
2014-03-14 05:37:00,49.8,48.1,30.01,West,277,0.0,0.0,94,0.00,,,0.00,Wunderground v.1.15,2014-03-14 12:37:00,
2014-03-14 05:42:00,49.8,48.1,30.02,West,277,0.0,0.0,94,0.00,,,0.00,Wunderground v.1.15,2014-03-14 12:42:00,
2014-03-14 05:52:00,49.8,48.1,30.02,West,277,0.0,0.0,94,0.00,,,0.00,Wunderground v.1.15,2014-03-14 12:52:00,
2014-03-14 06:02:00,50.3,48.9,30.02,West,277,0.0,3.0,95,0.00,,,0.00,Wunderground v.1.15,2014-03-14 13:02:00,
2014-03-14 06:12:00,50.8,49.4,30.02,West,277,0.0,3.0,95,0.00,,,0.00,Wunderground v.1.15,2014-03-14 13:12:00,
2014-03-14 06:22:00,51.2,49.5,30.02,West,277,0.0,0.0,94,0.00,,,0.00,Wunderground v.1.15,2014-03-14 13:22:00,
2014-03-14 06:32:00,51.3,49.6,30.03,West,277,0.0,1.0,94,0.00,,,0.00,Wunderground v.1.15,2014-03-14 13:32:00,
2014-03-14 06:42:00,51.4,49.4,30.03,West,277,0.0,0.0,93,0.00,,,0.00,Wunderground v.1.15,2014-03-14 13:42:00,
2014-03-14 06:52:00,51.3,49.3,30.03,West,277,0.0,0.0,93,0.00,,,0.00,Wunderground v.1.15,2014-03-14 13:52:00,
2014-03-14 06:57:00,51.4,49.4,30.03,West,277,0.0,0.0,93,0.00,,,0.00,Wunderground v.1.15,2014-03-14 13:57:00,
2014-03-14 07:07:00,51.4,49.4,30.03,West,277,0.0,0.0,93,0.00,,,0.00,Wunderground v.1.15,2014-03-14 14:07:00,
2014-03-14 07:12:00,51.3,49.3,30.04,West,277,0.0,0.0,93,0.00,,,0.00,Wunderground v.1.15,2014-03-14 14:12:00,
2014-03-14 07:22:00,51.2,49.2,30.04,West,277,0.0,0.0,93,0.00,,,0.00,Wunderground v.1.15,2014-03-14 14:22:00,
2014-03-14 07:32:00,51.0,49.0,30.05,West,277,0.0,0.0,93,0.00,,,0.00,Wunderground v.1.15,2014-03-14 14:32:00,
2014-03-14 07:42:00,51.2,49.5,30.05,West,277,0.0,0.0,94,0.00,,,0.00,Wunderground v.1.15,2014-03-14 14:42:00,
2014-03-14 07:52:00,51.6,49.9,30.06,West,277,0.0,0.0,94,0.00,,,0.00,Wunderground v.1.15,2014-03-14 14:52:00,
2014-03-14 08:02:00,52.7,51.0,30.06,West,277,1.0,1.0,94,0.00,,,0.00,Wunderground v.1.15,2014-03-14 15:02:00,
2014-03-14 08:12:00,53.1,51.1,30.06,West,277,0.0,2.0,93,0.00,,,0.00,Wunderground v.1.15,2014-03-14 15:12:00,
2014-03-14 08:22:00,53.8,51.8,30.06,West,277,0.0,0.0,93,0.00,,,0.00,Wunderground v.1.15,2014-03-14 15:22:00,
2014-03-14 08:32:00,55.0,52.7,30.07,West,277,0.0,1.0,92,0.00,,,0.00,Wunderground v.1.15,2014-03-14 15:32:00,
2014-03-14 08:42:00,56.0,53.4,30.07,West,277,0.0,1.0,91,0.00,,,0.00,Wunderground v.1.15,2014-03-14 15:42:00,
2014-03-14 08:52:00,56.9,53.1,30.07,West,277,1.0,2.0,87,0.00,,,0.00,Wunderground v.1.15,2014-03-14 15:52:00,
2014-03-14 09:02:00,57.5,53.7,30.08,West,277,0.0,2.0,87,0.00,,,0.00,Wunderground v.1.15,2014-03-14 16:02:00,
2014-03-14 09:07:00,57.7,53.5,30.08,West,277,0.0,2.0,86,0.00,,,0.00,Wunderground v.1.15,2014-03-14 16:07:00,
2014-03-14 09:17:00,58.1,53.6,30.08,West,277,0.0,2.0,85,0.00,,,0.00,Wunderground v.1.15,2014-03-14 16:17:00,
2014-03-14 09:22:00,58.6,54.1,30.08,West,277,0.0,0.0,85,0.00,,,0.00,Wunderground v.1.15,2014-03-14 16:22:00,
2014-03-14 09:27:00,59.2,54.0,30.08,West,277,1.0,1.0,83,0.00,,,0.00,Wunderground v.1.15,2014-03-14 16:27:00,
2014-03-14 09:37:00,59.5,54.3,30.08,South,186,1.0,3.0,83,0.00,,,0.00,Wunderground v.1.15,2014-03-14 16:37:00,
2014-03-14 09:42:00,59.4,54.2,30.08,South,187,2.0,2.0,83,0.00,,,0.00,Wunderground v.1.15,2014-03-14 16:42:00,
2014-03-14 09:52:00,60.4,54.9,30.08,South,187,1.0,1.0,82,0.00,,,0.00,Wunderground v.1.15,2014-03-14 16:52:00,
2014-03-14 10:02:00,61.3,54.4,30.09,SSE,161,1.0,3.0,78,0.00,,,0.00,Wunderground v.1.15,2014-03-14 17:02:00,
2014-03-14 10:12:00,62.1,54.8,30.09,SSE,161,1.0,3.0,77,0.00,,,0.00,Wunderground v.1.15,2014-03-14 17:12:00,
2014-03-14 10:22:00,62.6,54.6,30.09,ENE,61,2.0,2.0,75,0.00,,,0.00,Wunderground v.1.15,2014-03-14 17:22:00,
2014-03-14 10:32:00,62.6,54.6,30.09,SW,215,1.0,2.0,75,0.00,,,0.00,Wunderground v.1.15,2014-03-14 17:32:00,
2014-03-14 10:37:00,62.8,54.0,30.09,SW,215,2.0,3.0,73,0.00,,,0.00,Wunderground v.1.15,2014-03-14 17:37:00,
2014-03-14 10:47:00,63.4,53.8,30.09,NE,55,2.0,2.0,71,0.00,,,0.00,Wunderground v.1.15,2014-03-14 17:47:00,
2014-03-14 10:52:00,63.4,53.8,30.09,NE,46,2.0,2.0,71,0.00,,,0.00,Wunderground v.1.15,2014-03-14 17:52:00,
2014-03-14 10:57:00,64.1,54.1,30.09,South,169,2.0,2.0,70,0.00,,,0.00,Wunderground v.1.15,2014-03-14 17:57:00,
2014-03-14 11:07:00,64.6,53.4,30.09,SSW,210,2.0,5.0,67,0.00,,,0.00,Wunderground v.1.15,2014-03-14 18:07:00,
2014-03-14 11:17:00,64.7,53.1,30.09,SSW,210,1.0,5.0,66,0.00,,,0.00,Wunderground v.1.15,2014-03-14 18:17:00,
2014-03-14 11:22:00,65.1,52.6,30.09,South,169,2.0,2.0,64,0.00,,,0.00,Wunderground v.1.15,2014-03-14 18:22:00,
2014-03-14 11:32:00,66.2,53.2,30.09,ENE,60,2.0,2.0,63,0.00,,,0.00,Wunderground v.1.15,2014-03-14 18:32:00,
2014-03-14 11:37:00,67.0,53.5,30.09,SSE,150,1.0,2.0,62,0.00,,,0.00,Wunderground v.1.15,2014-03-14 18:37:00,
2014-03-14 11:47:00,67.7,54.2,30.09,SW,236,2.0,6.0,62,0.00,,,0.00,Wunderground v.1.15,2014-03-14 18:47:00,
2014-03-14 11:52:00,67.4,54.4,30.09,WSW,240,3.0,3.0,63,0.00,,,0.00,Wunderground v.1.15,2014-03-14 18:52:00,
2014-03-14 12:02:00,67.8,53.4,30.09,SW,223,2.0,6.0,60,0.00,,,0.00,Wunderground v.1.15,2014-03-14 19:02:00,
2014-03-14 12:07:00,67.5,53.6,30.09,NW,304,3.0,6.0,61,0.00,,,0.00,Wunderground v.1.15,2014-03-14 19:07:00,
2014-03-14 12:17:00,68.7,52.8,30.08,SW,236,2.0,6.0,57,0.00,,,0.00,Wunderground v.1.15,2014-03-14 19:17:00,
2014-03-14 12:22:00,69.1,52.7,30.08,WNW,290,3.0,3.0,56,0.00,,,0.00,Wunderground v.1.15,2014-03-14 19:22:00,
2014-03-14 12:32:00,69.8,52.4,30.08,WNW,294,2.0,2.0,54,0.00,,,0.00,Wunderground v.1.15,2014-03-14 19:32:00,
2014-03-14 12:37:00,70.1,51.1,30.07,North,360,2.0,2.0,51,0.00,,,0.00,Wunderground v.1.15,2014-03-14 19:37:00,
2014-03-14 12:47:00,70.4,51.9,30.07,WSW,241,3.0,4.0,52,0.00,,,0.00,Wunderground v.1.15,2014-03-14 19:47:00,
2014-03-14 12:52:00,70.6,52.1,30.07,SW,226,4.0,4.0,52,0.00,,,0.00,Wunderground v.1.15,2014-03-14 19:52:00,
2014-03-14 13:02:00,71.1,52.0,30.07,SW,235,3.0,3.0,51,0.00,,,0.00,Wunderground v.1.15,2014-03-14 20:02:00,
2014-03-14 13:12:00,71.2,52.1,30.07,SW,236,4.0,4.0,51,0.00,,,0.00,Wunderground v.1.15,2014-03-14 20:12:00,
2014-03-14 13:22:00,71.5,51.9,30.06,SW,231,4.0,4.0,50,0.00,,,0.00,Wunderground v.1.15,2014-03-14 20:22:00,
2014-03-14 13:32:00,72.2,51.4,30.05,WNW,288,4.0,4.0,48,0.00,,,0.00,Wunderground v.1.15,2014-03-14 20:32:00,
2014-03-14 13:37:00,72.7,51.9,30.05,WNW,300,4.0,4.0,48,0.00,,,0.00,Wunderground v.1.15,2014-03-14 20:37:00,
2014-03-14 13:47:00,73.4,52.5,30.05,NNW,332,3.0,5.0,48,0.00,,,0.00,Wunderground v.1.15,2014-03-14 20:47:00,
2014-03-14 13:57:00,73.7,51.6,30.04,SW,222,4.0,7.0,46,0.00,,,0.00,Wunderground v.1.15,2014-03-14 20:57:00,
2014-03-14 14:02:00,73.3,52.4,30.04,SSW,207,5.0,5.0,48,0.00,,,0.00,Wunderground v.1.15,2014-03-14 21:02:00,
2014-03-14 14:12:00,73.3,54.1,30.03,SW,215,4.0,11.0,51,0.00,,,0.00,Wunderground v.1.15,2014-03-14 21:12:00,
2014-03-14 14:17:00,73.4,54.7,30.03,SSW,207,4.0,11.0,52,0.00,,,0.00,Wunderground v.1.15,2014-03-14 21:17:00,
2014-03-14 14:22:00,73.6,54.9,30.03,SSW,198,5.0,5.0,52,0.00,,,0.00,Wunderground v.1.15,2014-03-14 21:22:00,
2014-03-14 14:32:00,74.3,54.5,30.02,SW,229,3.0,3.0,50,0.00,,,0.00,Wunderground v.1.15,2014-03-14 21:32:00,
2014-03-14 14:37:00,74.3,54.5,30.02,SSW,205,4.0,4.0,50,0.00,,,0.00,Wunderground v.1.15,2014-03-14 21:37:00,
2014-03-14 14:42:00,74.8,56.0,30.02,SW,230,4.0,4.0,52,0.00,,,0.00,Wunderground v.1.15,2014-03-14 21:42:00,
2014-03-14 14:52:00,74.3,55.0,30.02,SW,234,4.0,6.0,51,0.00,,,0.00,Wunderground v.1.15,2014-03-14 21:52:00,
2014-03-14 15:02:00,74.3,56.1,30.01,WSW,258,4.0,12.0,53,0.00,,,0.00,Wunderground v.1.15,2014-03-14 22:02:00,
2014-03-14 15:12:00,74.0,55.8,30.01,WSW,237,6.0,12.0,53,0.00,,,0.00,Wunderground v.1.15,2014-03-14 22:12:00,
2014-03-14 15:17:00,74.3,56.1,30.01,SSW,200,4.0,12.0,53,0.00,,,0.00,Wunderground v.1.15,2014-03-14 22:17:00,
2014-03-14 15:27:00,73.7,56.5,30.01,South,184,5.0,7.0,55,0.00,,,0.00,Wunderground v.1.15,2014-03-14 22:27:00,
2014-03-14 15:37:00,74.0,55.3,30.01,SW,233,6.0,6.0,52,0.00,,,0.00,Wunderground v.1.15,2014-03-14 22:37:00,
2014-03-14 15:47:00,74.2,55.4,30.01,SW,234,5.0,7.0,52,0.00,,,0.00,Wunderground v.1.15,2014-03-14 22:47:00,
2014-03-14 15:57:00,74.5,55.7,30.01,SW,232,5.0,5.0,52,0.00,,,0.00,Wunderground v.1.15,2014-03-14 22:57:00,
2014-03-14 16:02:00,74.2,55.4,30.01,SW,217,5.0,12.0,52,0.00,,,0.00,Wunderground v.1.15,2014-03-14 23:02:00,
2014-03-14 16:12:00,73.7,55.5,30.01,SW,224,4.0,12.0,53,0.00,,,0.00,Wunderground v.1.15,2014-03-14 23:12:00,
2014-03-14 16:22:00,74.2,53.8,30.00,West,264,5.0,5.0,49,0.00,,,0.00,Wunderground v.1.15,2014-03-14 23:22:00,
2014-03-14 16:32:00,73.7,54.4,30.00,SW,232,5.0,5.0,51,0.00,,,0.00,Wunderground v.1.15,2014-03-14 23:32:00,
2014-03-14 16:42:00,74.0,55.3,30.00,SW,228,5.0,6.0,52,0.00,,,0.00,Wunderground v.1.15,2014-03-14 23:42:00,
2014-03-14 16:47:00,74.2,54.9,30.00,WSW,242,5.0,6.0,51,0.00,,,0.00,Wunderground v.1.15,2014-03-14 23:47:00,
2014-03-14 16:57:00,73.9,55.7,30.00,SSW,194,5.0,7.0,53,0.00,,,0.00,Wunderground v.1.15,2014-03-14 23:57:00,
2014-03-14 17:02:00,73.5,55.8,30.00,SE,133,6.0,6.0,54,0.00,,,0.00,Wunderground v.1.15,2014-03-15 00:02:00,
2014-03-14 17:12:00,73.2,55.6,30.00,WSW,248,5.0,12.0,54,0.00,,,0.00,Wunderground v.1.15,2014-03-15 00:12:00,
2014-03-14 17:22:00,72.3,55.7,30.00,SW,232,6.0,6.0,56,0.00,,,0.00,Wunderground v.1.15,2014-03-15 00:22:00,
2014-03-14 17:32:00,70.9,54.9,30.01,South,189,6.0,6.0,57,0.00,,,0.00,Wunderground v.1.15,2014-03-15 00:32:00,
2014-03-14 17:42:00,70.7,55.7,30.01,SSE,163,4.0,6.0,59,0.00,,,0.00,Wunderground v.1.15,2014-03-15 00:42:00,
2014-03-14 17:47:00,70.8,55.8,30.01,SSW,205,4.0,6.0,59,0.00,,,0.00,Wunderground v.1.15,2014-03-15 00:47:00,
2014-03-14 17:57:00,70.4,55.4,30.01,SSW,200,4.0,5.0,59,0.00,,,0.00,Wunderground v.1.15,2014-03-15 00:57:00,
2014-03-14 18:07:00,69.5,55.5,30.01,SSW,202,5.0,12.0,61,0.00,,,0.00,Wunderground v.1.15,2014-03-15 01:07:00,
2014-03-14 18:17:00,68.8,55.2,30.01,SSE,164,5.0,5.0,62,0.00,,,0.00,Wunderground v.1.15,2014-03-15 01:17:00,
2014-03-14 18:27:00,68.0,55.8,30.01,SSW,198,4.0,7.0,65,0.00,,,0.00,Wunderground v.1.15,2014-03-15 01:27:00,
2014-03-14 18:37:00,67.4,55.6,30.02,South,171,5.0,6.0,66,0.00,,,0.00,Wunderground v.1.15,2014-03-15 01:37:00,
2014-03-14 18:47:00,66.9,55.6,30.02,South,171,4.0,6.0,67,0.00,,,0.00,Wunderground v.1.15,2014-03-15 01:47:00,
2014-03-14 18:52:00,66.8,55.5,30.02,South,173,3.0,3.0,67,0.00,,,0.00,Wunderground v.1.15,2014-03-15 01:52:00,
2014-03-14 19:02:00,66.5,55.6,30.03,SSW,201,3.0,3.0,68,0.00,,,0.00,Wunderground v.1.15,2014-03-15 02:02:00,
2014-03-14 19:12:00,65.9,55.4,30.03,South,178,3.0,12.0,69,0.00,,,0.00,Wunderground v.1.15,2014-03-15 02:12:00,
2014-03-14 19:22:00,65.6,55.9,30.03,South,175,2.0,3.0,71,0.00,,,0.00,Wunderground v.1.15,2014-03-15 02:22:00,
2014-03-14 19:32:00,65.0,55.4,30.03,South,175,1.0,1.0,71,0.00,,,0.00,Wunderground v.1.15,2014-03-15 02:32:00,
2014-03-14 19:42:00,64.7,55.1,30.04,South,175,0.0,0.0,71,0.00,,,0.00,Wunderground v.1.15,2014-03-15 02:42:00,
2014-03-14 19:52:00,64.4,55.2,30.04,South,175,1.0,1.0,72,0.00,,,0.00,Wunderground v.1.15,2014-03-15 02:52:00,
2014-03-14 19:57:00,64.3,55.1,30.05,South,175,1.0,1.0,72,0.00,,,0.00,Wunderground v.1.15,2014-03-15 02:57:00,
2014-03-14 20:07:00,64.2,55.0,30.05,South,175,0.0,11.0,72,0.00,,,0.00,Wunderground v.1.15,2014-03-15 03:07:00,
2014-03-14 20:12:00,64.0,54.8,30.05,South,175,0.0,11.0,72,0.00,,,0.00,Wunderground v.1.15,2014-03-15 03:12:00,
2014-03-14 20:22:00,63.8,55.0,30.05,South,175,1.0,1.0,73,0.00,,,0.00,Wunderground v.1.15,2014-03-15 03:22:00,
2014-03-14 20:32:00,63.6,55.2,30.06,South,175,1.0,3.0,74,0.00,,,0.00,Wunderground v.1.15,2014-03-15 03:32:00,
2014-03-14 20:37:00,63.5,55.4,30.06,South,175,2.0,3.0,75,0.00,,,0.00,Wunderground v.1.15,2014-03-15 03:37:00,
2014-03-14 20:47:00,63.1,55.8,30.06,South,175,2.0,3.0,77,0.00,,,0.00,Wunderground v.1.15,2014-03-15 03:47:00,
2014-03-14 20:52:00,62.9,55.9,30.07,South,175,2.0,2.0,78,0.00,,,0.00,Wunderground v.1.15,2014-03-15 03:52:00,
2014-03-14 21:02:00,62.6,56.0,30.07,South,175,1.0,6.0,79,0.00,,,0.00,Wunderground v.1.15,2014-03-15 04:02:00,
2014-03-14 21:07:00,62.5,56.2,30.07,South,175,1.0,6.0,80,0.00,,,0.00,Wunderground v.1.15,2014-03-15 04:07:00,
2014-03-14 21:12:00,62.3,56.4,30.07,South,175,0.0,6.0,81,0.00,,,0.00,Wunderground v.1.15,2014-03-15 04:12:00,
2014-03-14 21:17:00,62.2,56.3,30.08,South,175,1.0,6.0,81,0.00,,,0.00,Wunderground v.1.15,2014-03-15 04:17:00,
2014-03-14 21:22:00,62.0,56.4,30.08,South,175,1.0,1.0,82,0.00,,,0.00,Wunderground v.1.15,2014-03-15 04:22:00,
2014-03-14 21:27:00,61.8,56.2,30.08,South,175,0.0,1.0,82,0.00,,,0.00,Wunderground v.1.15,2014-03-15 04:27:00,
2014-03-14 21:32:00,61.7,56.5,30.08,South,175,0.0,0.0,83,0.00,,,0.00,Wunderground v.1.15,2014-03-15 04:32:00,
2014-03-14 21:37:00,61.5,56.3,30.08,South,175,0.0,0.0,83,0.00,,,0.00,Wunderground v.1.15,2014-03-15 04:37:00,
2014-03-14 21:47:00,61.2,56.0,30.09,South,175,0.0,0.0,83,0.00,,,0.00,Wunderground v.1.15,2014-03-15 04:47:00,
2014-03-14 21:52:00,61.0,55.8,30.09,South,175,0.0,0.0,83,0.00,,,0.00,Wunderground v.1.15,2014-03-15 04:52:00,
2014-03-14 22:02:00,60.7,55.8,30.09,South,175,0.0,4.0,84,0.00,,,0.00,Wunderground v.1.15,2014-03-15 05:02:00,
2014-03-14 22:12:00,60.5,56.0,30.09,South,175,1.0,1.0,85,0.00,,,0.00,Wunderground v.1.15,2014-03-15 05:12:00,
2014-03-14 22:22:00,60.3,56.1,30.09,South,175,1.0,1.0,86,0.00,,,0.00,Wunderground v.1.15,2014-03-15 05:22:00,
2014-03-14 22:27:00,60.2,56.0,30.10,South,175,0.0,1.0,86,0.00,,,0.00,Wunderground v.1.15,2014-03-15 05:27:00,
2014-03-14 22:32:00,60.1,55.9,30.09,South,175,1.0,1.0,86,0.00,,,0.00,Wunderground v.1.15,2014-03-15 05:32:00,
2014-03-14 22:42:00,59.9,55.7,30.10,South,175,0.0,0.0,86,0.00,,,0.00,Wunderground v.1.15,2014-03-15 05:42:00,
2014-03-14 22:47:00,59.8,55.9,30.10,South,175,0.0,0.0,87,0.00,,,0.00,Wunderground v.1.15,2014-03-15 05:47:00,
2014-03-14 22:57:00,59.6,55.7,30.09,South,175,1.0,1.0,87,0.00,,,0.00,Wunderground v.1.15,2014-03-15 05:57:00,
2014-03-14 23:02:00,59.5,55.6,30.09,South,175,1.0,3.0,87,0.00,,,0.00,Wunderground v.1.15,2014-03-15 06:02:00,
2014-03-14 23:12:00,59.3,55.7,30.09,South,175,1.0,1.0,88,0.00,,,0.00,Wunderground v.1.15,2014-03-15 06:12:00,
2014-03-14 23:17:00,59.2,55.6,30.10,South,175,1.0,3.0,88,0.00,,,0.00,Wunderground v.1.15,2014-03-15 06:17:00,
2014-03-14 23:27:00,58.7,54.5,30.10,South,175,0.0,0.0,86,0.00,,,0.00,Wunderground v.1.15,2014-03-15 06:27:00,
2014-03-14 23:37:00,58.3,54.1,30.10,South,175,0.0,0.0,86,0.00,,,0.00,Wunderground v.1.15,2014-03-15 06:37:00,
2014-03-14 23:47:00,58.0,54.2,30.09,South,175,0.0,1.0,87,0.00,,,0.00,Wunderground v.1.15,2014-03-15 06:47:00,
2014-03-14 23:52:00,57.9,54.1,30.10,South,175,0.0,0.0,87,0.00,,,0.00,Wunderground v.1.15,2014-03-15 06:52:00,